createdAt,value
2019-03-30T00:00:31.357Z,7.73
2019-03-30T00:02:59.151Z,9.47
2019-03-30T00:05:27.115Z,7.13
2019-03-30T00:07:54.965Z,7.77
2019-03-30T00:10:22.765Z,7.23
2019-03-30T00:12:50.627Z,7.77
2019-03-30T00:15:18.565Z,7.33
2019-03-30T00:17:47.205Z,7.67
2019-03-30T00:20:15.117Z,7.90
2019-03-30T00:22:42.909Z,7.80
2019-03-30T00:25:10.665Z,8.00
2019-03-30T00:27:38.511Z,7.37
2019-03-30T00:30:06.521Z,7.40
2019-03-30T00:32:34.373Z,9.53
2019-03-30T00:35:02.295Z,10.10
2019-03-30T00:37:30.071Z,7.13
2019-03-30T00:39:57.829Z,7.53
2019-03-30T00:42:25.673Z,7.70
2019-03-30T00:44:53.553Z,6.40
2019-03-30T00:47:21.434Z,7.40
2019-03-30T00:49:50.199Z,7.87
2019-03-30T00:52:18.185Z,9.23
2019-03-30T00:54:46.023Z,8.87
2019-03-30T00:57:13.887Z,7.17
2019-03-30T00:59:41.753Z,6.60
2019-03-30T01:02:09.656Z,8.37
2019-03-30T01:04:37.401Z,7.90
2019-03-30T01:07:05.186Z,8.07
2019-03-30T01:09:33.042Z,8.27
2019-03-30T01:12:00.959Z,7.43
2019-03-30T01:14:28.844Z,7.17
2019-03-30T01:16:56.741Z,12.50
2019-03-30T01:19:24.657Z,6.30
2019-03-30T01:21:52.569Z,7.83
2019-03-30T01:24:20.433Z,8.30
2019-03-30T01:26:48.302Z,6.83
2019-03-30T01:29:16.189Z,7.00
2019-03-30T01:31:44.070Z,6.93
2019-03-30T01:34:11.909Z,7.40
2019-03-30T01:36:40.045Z,7.90
2019-03-30T01:39:08.895Z,7.53
2019-03-30T01:41:36.754Z,7.97
2019-03-30T01:44:04.676Z,9.33
2019-03-30T01:46:32.450Z,8.27
2019-03-30T01:49:00.285Z,11.50
2019-03-30T01:51:28.188Z,7.40
2019-03-30T01:53:56.029Z,8.30
2019-03-30T01:56:23.906Z,9.70
2019-03-30T01:58:51.781Z,8.40
2019-03-30T02:01:19.659Z,8.37
2019-03-30T02:03:47.565Z,7.90
2019-03-30T02:06:15.421Z,13.10
2019-03-30T02:08:43.174Z,9.10
2019-03-30T02:11:10.923Z,9.43
2019-03-30T02:13:38.798Z,7.43
2019-03-30T02:16:06.690Z,7.93
2019-03-30T02:18:34.519Z,9.00
2019-03-30T02:21:02.359Z,7.80
2019-03-30T02:23:30.254Z,6.40
2019-03-30T02:25:58.002Z,9.63
2019-03-30T02:28:25.777Z,8.37
2019-03-30T02:30:53.648Z,9.93
2019-03-30T02:33:21.419Z,8.93
2019-03-30T02:35:49.278Z,10.93
2019-03-30T02:38:17.255Z,11.00
2019-03-30T02:40:45.127Z,11.13
2019-03-30T02:43:12.925Z,10.57
2019-03-30T02:45:40.778Z,8.40
2019-03-30T02:48:08.644Z,9.47
2019-03-30T02:50:49.096Z,9.93
2019-03-30T02:53:06.198Z,9.03
2019-03-30T02:55:34.077Z,12.43
2019-03-30T02:58:01.934Z,9.70
2019-03-30T03:00:29.809Z,10.30
2019-03-30T03:02:57.806Z,11.47
2019-03-30T03:05:25.691Z,9.87
2019-03-30T03:07:53.446Z,10.50
2019-03-30T03:10:21.350Z,10.13
2019-03-30T03:12:49.102Z,8.80
2019-03-30T03:15:16.987Z,8.40
2019-03-30T03:17:44.760Z,8.67
2019-03-30T03:20:12.645Z,9.63
2019-03-30T03:22:40.609Z,10.00
2019-03-30T03:25:08.526Z,9.33
2019-03-30T03:27:36.396Z,11.97
2019-03-30T03:30:05.054Z,9.67
2019-03-30T03:32:33.003Z,12.53
2019-03-30T03:35:00.960Z,10.80
2019-03-30T03:37:43.126Z,14.57
2019-03-30T03:39:58.545Z,11.93
2019-03-30T03:42:26.602Z,13.50
2019-03-30T03:44:54.402Z,10.70
2019-03-30T03:47:22.174Z,9.63
2019-03-30T03:49:50.047Z,11.50
2019-03-30T03:52:18.408Z,9.80
2019-03-30T03:54:46.292Z,10.27
2019-03-30T03:57:17.789Z,14.10
2019-03-30T03:59:50.174Z,9.47
2019-03-30T04:02:19.052Z,12.70
2019-03-30T04:04:48.947Z,12.43
2019-03-30T04:07:19.219Z,9.63
2019-03-30T04:09:50.303Z,10.83
2019-03-30T04:12:21.700Z,11.10
2019-03-30T04:14:51.477Z,12.40
2019-03-30T04:17:19.578Z,9.80
2019-03-30T04:19:47.434Z,11.43
2019-03-30T04:22:15.188Z,14.20
2019-03-30T04:24:43.045Z,11.13
2019-03-30T04:27:10.915Z,12.70
2019-03-30T04:29:38.900Z,10.77
2019-03-30T04:32:06.666Z,10.27
2019-03-30T04:34:34.419Z,10.53
2019-03-30T04:37:02.309Z,10.70
2019-03-30T04:39:30.171Z,12.13
2019-03-30T04:41:59.710Z,13.70
2019-03-30T04:44:27.464Z,12.13
2019-03-30T04:46:55.321Z,12.85
2019-03-30T04:49:23.099Z,12.23
2019-03-30T04:51:57.409Z,11.53
2019-03-30T04:54:20.645Z,10.85
2019-03-30T04:56:48.567Z,10.95
2019-03-30T04:59:16.553Z,13.10
2019-03-30T05:01:44.313Z,11.22
2019-03-30T05:04:12.101Z,10.80
2019-03-30T05:06:40.001Z,13.62
2019-03-30T05:09:07.931Z,11.65
2019-03-30T05:11:35.796Z,14.35
2019-03-30T05:14:03.693Z,15.03
2019-03-30T05:16:31.551Z,11.97
2019-03-30T05:18:59.321Z,11.12
2019-03-30T05:21:27.193Z,11.90
2019-03-30T05:23:55.093Z,13.43
2019-03-30T05:26:23.015Z,13.22
2019-03-30T05:28:50.895Z,17.10
2019-03-30T05:31:18.780Z,12.60
2019-03-30T05:33:46.741Z,11.80
2019-03-30T05:36:14.609Z,12.43
2019-03-30T05:38:42.577Z,12.73
2019-03-30T05:41:10.485Z,13.33
2019-03-30T05:43:38.497Z,13.30
2019-03-30T05:46:06.393Z,12.27
2019-03-30T05:48:34.361Z,11.83
2019-03-30T05:51:02.369Z,11.67
2019-03-30T05:53:30.345Z,14.53
2019-03-30T05:55:58.243Z,10.77
2019-03-30T05:58:26.033Z,11.70
2019-03-30T06:00:53.892Z,10.57
2019-03-30T06:03:21.773Z,13.47
2019-03-30T06:05:49.669Z,13.53
2019-03-30T06:08:17.573Z,13.37
2019-03-30T06:10:45.453Z,10.83
2019-03-30T06:13:13.255Z,13.00
2019-03-30T06:15:41.137Z,12.83
2019-03-30T06:18:11.359Z,13.20
2019-03-30T06:20:38.794Z,11.33
2019-03-30T06:23:06.681Z,11.08
2019-03-30T06:25:34.600Z,11.97
2019-03-30T06:28:02.349Z,13.60
2019-03-30T06:30:30.199Z,12.33
2019-03-30T06:32:58.088Z,13.30
2019-03-30T06:35:26.092Z,11.63
2019-03-30T06:37:53.861Z,13.33
2019-03-30T06:40:21.749Z,11.20
2019-03-30T06:42:49.585Z,12.20
2019-03-30T06:45:17.468Z,15.23
2019-03-30T06:47:45.220Z,10.47
2019-03-30T06:50:13.928Z,12.13
2019-03-30T06:52:56.385Z,11.23
2019-03-30T06:55:11.592Z,11.23
2019-03-30T06:57:39.352Z,12.20
2019-03-30T07:00:08.143Z,12.53
2019-03-30T07:02:36.384Z,13.67
2019-03-30T07:05:04.894Z,12.40
2019-03-30T07:07:32.925Z,13.57
2019-03-30T07:10:03.395Z,11.43
2019-03-30T07:12:35.020Z,12.77
2019-03-30T07:15:03.413Z,12.03
2019-03-30T07:17:33.793Z,14.30
2019-03-30T07:20:03.467Z,11.93
2019-03-30T07:22:31.372Z,12.23
2019-03-30T07:24:59.258Z,11.87
2019-03-30T07:27:27.116Z,12.13
2019-03-30T07:29:55.056Z,11.87
2019-03-30T07:32:22.884Z,16.27
2019-03-30T07:34:50.729Z,13.53
2019-03-30T07:37:18.616Z,11.23
2019-03-30T07:39:46.460Z,13.63
2019-03-30T07:42:14.334Z,11.60
2019-03-30T07:44:42.573Z,11.47
2019-03-30T07:47:10.461Z,13.97
2019-03-30T07:49:38.323Z,17.67
2019-03-30T07:52:06.101Z,12.87
2019-03-30T07:54:33.978Z,12.27
2019-03-30T07:57:06.263Z,12.00
2019-03-30T07:59:31.431Z,15.40
2019-03-30T08:01:59.192Z,13.30
2019-03-30T08:04:28.622Z,16.80
2019-03-30T08:06:56.728Z,14.50
2019-03-30T08:09:24.643Z,15.33
2019-03-30T08:11:52.483Z,12.10
2019-03-30T08:14:20.302Z,13.23
2019-03-30T08:16:48.194Z,14.97
2019-03-30T08:19:16.046Z,15.77
2019-03-30T08:21:43.913Z,15.60
2019-03-30T08:24:11.752Z,11.77
2019-03-30T08:26:39.672Z,13.03
2019-03-30T08:29:07.544Z,13.63
2019-03-30T08:31:35.425Z,14.10
2019-03-30T08:34:03.195Z,14.40
2019-03-30T08:36:31.048Z,11.20
2019-03-30T08:38:58.808Z,13.67
2019-03-30T08:41:26.690Z,12.00
2019-03-30T08:43:54.458Z,12.67
2019-03-30T08:46:22.400Z,14.17
2019-03-30T08:48:50.296Z,12.67
2019-03-30T08:51:20.784Z,12.97
2019-03-30T08:53:54.396Z,13.07
2019-03-30T08:56:17.648Z,11.97
2019-03-30T08:58:45.495Z,12.63
2019-03-30T09:01:13.361Z,18.67
2019-03-30T09:03:41.126Z,15.20
2019-03-30T09:06:09.098Z,13.47
2019-03-30T09:08:36.862Z,15.30
2019-03-30T09:11:04.753Z,13.27
2019-03-30T09:13:32.724Z,13.37
2019-03-30T09:16:00.511Z,12.43
2019-03-30T09:18:28.456Z,12.57
2019-03-30T09:20:56.376Z,12.43
2019-03-30T09:23:24.263Z,19.83
2019-03-30T09:25:52.048Z,12.27
2019-03-30T09:28:19.831Z,12.70
2019-03-30T09:30:47.578Z,16.03
2019-03-30T09:33:15.365Z,13.00
2019-03-30T09:35:43.206Z,12.57
2019-03-30T09:38:14.533Z,12.50
2019-03-30T09:40:40.739Z,11.90
2019-03-30T09:43:08.633Z,13.90
2019-03-30T09:45:36.495Z,11.33
2019-03-30T09:48:04.265Z,13.77
2019-03-30T09:50:32.117Z,10.27
2019-03-30T09:52:59.972Z,9.23
2019-03-30T09:55:27.822Z,10.60
2019-03-30T09:57:55.654Z,8.40
2019-03-30T10:00:23.417Z,10.77
2019-03-30T10:02:51.158Z,10.23
2019-03-30T10:05:18.908Z,9.07
2019-03-30T10:07:46.665Z,8.03
2019-03-30T10:10:14.457Z,8.33
2019-03-30T10:12:42.290Z,9.40
2019-03-30T10:15:10.385Z,8.60
2019-03-30T10:17:38.237Z,9.37
2019-03-30T10:20:06.314Z,7.83
2019-03-30T10:22:34.069Z,7.33
2019-03-30T10:25:01.937Z,9.90
2019-03-30T10:27:29.766Z,8.77
2019-03-30T10:29:57.627Z,6.30
2019-03-30T10:32:25.365Z,9.37
2019-03-30T10:34:53.132Z,8.37
2019-03-30T10:37:21.021Z,10.17
2019-03-30T10:39:48.805Z,10.23
2019-03-30T10:42:16.727Z,8.00
2019-03-30T10:44:44.449Z,8.73
2019-03-30T10:47:12.243Z,7.50
2019-03-30T10:49:39.982Z,8.67
2019-03-30T10:52:07.858Z,6.87
2019-03-30T10:54:35.581Z,8.80
2019-03-30T10:57:03.444Z,7.83
2019-03-30T10:59:31.302Z,10.23
2019-03-30T11:01:59.058Z,7.93
2019-03-30T11:04:26.853Z,8.60
2019-03-30T11:06:54.759Z,12.53
2019-03-30T11:09:22.694Z,7.67
2019-03-30T11:11:50.557Z,8.33
2019-03-30T11:14:18.313Z,8.73
2019-03-30T11:16:46.102Z,15.03
2019-03-30T11:19:13.848Z,9.83
2019-03-30T11:21:41.612Z,8.80
2019-03-30T11:24:09.394Z,9.73
2019-03-30T11:26:37.127Z,8.97
2019-03-30T11:29:04.997Z,8.20
2019-03-30T11:31:32.741Z,6.70
2019-03-30T11:34:00.607Z,8.30
2019-03-30T11:36:28.342Z,8.47
2019-03-30T11:38:56.105Z,9.77
2019-03-30T11:41:25.039Z,8.40
2019-03-30T11:43:53.009Z,6.93
2019-03-30T11:46:20.761Z,8.43
2019-03-30T11:48:48.516Z,10.27
2019-03-30T11:51:16.444Z,12.80
2019-03-30T11:53:44.307Z,8.97
2019-03-30T11:56:12.185Z,9.27
2019-03-30T11:58:40.247Z,7.63
2019-03-30T12:01:08.125Z,8.80
2019-03-30T12:03:36.047Z,7.17
2019-03-30T12:06:03.949Z,7.83
2019-03-30T12:08:31.857Z,7.00
2019-03-30T12:10:59.604Z,8.80
2019-03-30T12:13:27.466Z,10.53
2019-03-30T12:15:55.241Z,9.07
2019-03-30T12:18:23.241Z,9.83
2019-03-30T12:20:51.017Z,8.10
2019-03-30T12:23:19.054Z,10.27
2019-03-30T12:25:46.801Z,7.37
2019-03-30T12:28:14.603Z,8.33
2019-03-30T12:30:42.571Z,9.57
2019-03-30T12:33:10.465Z,7.53
2019-03-30T12:35:38.371Z,9.80
2019-03-30T12:38:06.263Z,10.57
2019-03-30T12:40:34.023Z,8.90
2019-03-30T12:43:01.823Z,8.23
2019-03-30T12:45:29.713Z,7.23
2019-03-30T12:47:57.669Z,8.47
2019-03-30T12:50:25.454Z,9.47
2019-03-30T12:52:53.317Z,7.30
2019-03-30T12:55:21.163Z,8.83
2019-03-30T12:57:48.889Z,9.50
2019-03-30T13:00:16.763Z,8.07
2019-03-30T13:02:46.413Z,9.73
2019-03-30T13:05:14.318Z,9.00
2019-03-30T13:07:42.099Z,8.77
2019-03-30T13:10:10.156Z,6.33
2019-03-30T13:12:38.001Z,8.30
2019-03-30T13:15:05.870Z,6.67
2019-03-30T13:17:33.627Z,7.33
2019-03-30T13:20:01.491Z,8.03
2019-03-30T13:22:29.374Z,8.67
2019-03-30T13:24:57.121Z,8.43
2019-03-30T13:27:24.878Z,9.80
2019-03-30T13:29:52.633Z,7.97
2019-03-30T13:32:20.411Z,8.27
2019-03-30T13:34:48.252Z,11.97
2019-03-30T13:37:16.715Z,7.43
2019-03-30T13:39:45.001Z,9.57
2019-03-30T13:42:12.857Z,8.80
2019-03-30T13:44:40.718Z,11.43
2019-03-30T13:47:08.445Z,9.13
2019-03-30T13:49:36.354Z,8.37
2019-03-30T13:52:04.232Z,8.43
2019-03-30T13:54:32.492Z,7.47
2019-03-30T13:57:00.251Z,9.10
2019-03-30T13:59:28.132Z,9.13
2019-03-30T14:01:56.002Z,11.07
2019-03-30T14:04:23.807Z,9.17
2019-03-30T14:06:51.690Z,9.20
2019-03-30T14:09:19.473Z,10.83
2019-03-30T14:11:47.197Z,6.70
2019-03-30T14:14:15.032Z,8.67
2019-03-30T14:16:42.773Z,9.83
2019-03-30T14:19:10.665Z,7.43
2019-03-30T14:21:38.500Z,7.60
2019-03-30T14:24:06.328Z,8.23
2019-03-30T14:26:34.180Z,9.30
2019-03-30T14:29:01.947Z,6.80
2019-03-30T14:31:29.674Z,6.57
2019-03-30T14:33:57.440Z,8.20
2019-03-30T14:36:25.192Z,8.10
2019-03-30T14:38:53.064Z,7.00
2019-03-30T14:41:20.933Z,12.27
2019-03-30T14:43:48.666Z,8.20
2019-03-30T14:46:16.528Z,6.13
2019-03-30T14:48:44.264Z,6.47
2019-03-30T14:51:12.018Z,8.67
2019-03-30T14:53:39.887Z,9.13
2019-03-30T14:56:07.733Z,10.13
2019-03-30T14:58:35.497Z,9.57
2019-03-30T15:01:03.513Z,6.63
2019-03-30T15:03:31.460Z,9.23
2019-03-30T15:05:59.348Z,8.03
2019-03-30T15:08:27.076Z,9.03
2019-03-30T15:10:54.833Z,10.43
2019-03-30T15:13:22.597Z,9.77
2019-03-30T15:15:50.354Z,12.40
2019-03-30T15:18:18.133Z,10.23
2019-03-30T15:20:45.983Z,10.10
2019-03-30T15:23:13.837Z,12.33
2019-03-30T15:25:41.714Z,9.13
2019-03-30T15:28:09.577Z,10.43
2019-03-30T15:30:37.397Z,12.73
2019-03-30T15:33:05.151Z,10.27
2019-03-30T15:35:32.905Z,13.07
2019-03-30T15:38:00.815Z,11.33
2019-03-30T15:40:28.670Z,10.93
2019-03-30T15:42:56.425Z,12.43
2019-03-30T15:45:24.151Z,14.13
2019-03-30T15:47:52.010Z,14.03
2019-03-30T15:50:19.872Z,12.27
2019-03-30T15:52:47.745Z,13.97
2019-03-30T15:55:15.469Z,9.73
2019-03-30T15:57:43.216Z,11.30
2019-03-30T16:00:12.190Z,11.27
2019-03-30T16:02:40.047Z,13.17
2019-03-30T16:05:08.117Z,14.90
2019-03-30T16:07:36.227Z,10.87
2019-03-30T16:10:04.771Z,12.27
2019-03-30T16:12:32.565Z,11.03
2019-03-30T16:15:00.397Z,10.47
2019-03-30T16:17:28.370Z,13.97
2019-03-30T16:19:56.225Z,10.97
2019-03-30T16:22:24.094Z,13.53
2019-03-30T16:24:51.811Z,9.80
2019-03-30T16:27:28.778Z,11.47
2019-03-30T16:29:49.403Z,11.30
2019-03-30T16:32:17.279Z,15.40
2019-03-30T16:34:45.061Z,12.63
2019-03-30T16:37:12.817Z,14.30
2019-03-30T16:39:40.648Z,12.40
2019-03-30T16:42:08.388Z,19.00
2019-03-30T16:44:36.146Z,15.37
2019-03-30T16:47:03.999Z,14.63
2019-03-30T16:49:31.740Z,13.33
2019-03-30T16:51:59.489Z,12.40
2019-03-30T16:54:27.228Z,10.60
2019-03-30T16:56:55.048Z,14.13
2019-03-30T16:59:22.932Z,10.87
2019-03-30T17:01:50.712Z,13.70
2019-03-30T17:04:18.634Z,13.13
2019-03-30T17:06:46.377Z,15.13
2019-03-30T17:09:14.227Z,16.23
2019-03-30T17:11:42.010Z,14.53
2019-03-30T17:14:09.764Z,14.00
2019-03-30T17:16:37.505Z,15.23
2019-03-30T17:19:05.256Z,13.87
2019-03-30T17:21:33.103Z,12.33
2019-03-30T17:24:00.879Z,12.60
2019-03-30T17:26:28.589Z,13.50
2019-03-30T17:28:56.351Z,15.63
2019-03-30T17:31:26.676Z,12.40
2019-03-30T17:33:54.502Z,14.07
2019-03-30T17:36:22.422Z,15.20
2019-03-30T17:38:50.161Z,15.43
2019-03-30T17:41:18.027Z,15.33
2019-03-30T17:43:45.851Z,13.63
2019-03-30T17:46:13.600Z,15.53
2019-03-30T17:48:41.450Z,16.60
2019-03-30T17:51:09.322Z,16.70
2019-03-30T17:53:39.502Z,19.20
2019-03-30T17:56:06.835Z,16.27
2019-03-30T17:58:35.040Z,15.87
2019-03-30T18:01:02.980Z,20.67
2019-03-30T18:03:30.842Z,19.13
2019-03-30T18:05:58.582Z,15.70
2019-03-30T18:08:26.457Z,16.87
2019-03-30T18:10:54.189Z,17.17
2019-03-30T18:13:22.027Z,15.03
2019-03-30T18:15:49.901Z,14.90
2019-03-30T18:18:17.785Z,15.27
2019-03-30T18:20:45.656Z,16.23
2019-03-30T18:23:13.409Z,17.93
2019-03-30T18:25:41.293Z,19.27
2019-03-30T18:28:09.136Z,18.33
2019-03-30T18:30:38.736Z,18.70
2019-03-30T18:33:06.689Z,14.87
2019-03-30T18:35:36.364Z,13.23
2019-03-30T18:38:04.207Z,18.30
2019-03-30T18:40:32.720Z,14.80
2019-03-30T18:43:02.033Z,15.23
2019-03-30T18:45:30.181Z,18.77
2019-03-30T18:48:10.451Z,19.30
2019-03-30T18:50:38.951Z,14.43
2019-03-30T18:53:06.814Z,17.07
2019-03-30T18:55:34.665Z,19.37
2019-03-30T18:58:02.549Z,18.10
2019-03-30T19:00:30.391Z,19.63
2019-03-30T19:02:58.275Z,17.17
2019-03-30T19:05:26.153Z,19.00
2019-03-30T19:07:53.925Z,21.53
2019-03-30T19:10:21.715Z,18.53
2019-03-30T19:12:49.477Z,18.03
2019-03-30T19:15:17.314Z,19.17
2019-03-30T19:17:45.226Z,22.03
2019-03-30T19:20:14.171Z,20.63
2019-03-30T19:22:41.936Z,21.40
2019-03-30T19:25:09.677Z,17.47
2019-03-30T19:27:37.458Z,18.23
2019-03-30T19:30:05.570Z,23.10
2019-03-30T19:32:33.453Z,21.63
2019-03-30T19:35:01.349Z,22.87
2019-03-30T19:37:29.249Z,22.10
2019-03-30T19:39:57.101Z,24.10
2019-03-30T19:42:24.991Z,24.13
2019-03-30T19:44:52.840Z,23.20
2019-03-30T19:47:20.583Z,19.27
2019-03-30T19:49:48.421Z,21.40
2019-03-30T19:52:16.179Z,16.10
2019-03-30T19:54:43.914Z,18.57
2019-03-30T19:57:11.690Z,18.40
2019-03-30T19:59:39.431Z,18.43
2019-03-30T20:02:07.309Z,17.20
2019-03-30T20:04:35.190Z,21.13
2019-03-30T20:07:03.155Z,18.30
2019-03-30T20:09:30.978Z,19.47
2019-03-30T20:11:58.838Z,15.40
2019-03-30T20:14:26.568Z,16.40
2019-03-30T20:16:54.456Z,16.90
2019-03-30T20:19:22.285Z,16.40
2019-03-30T20:21:50.200Z,17.77
2019-03-30T20:24:17.930Z,19.17
2019-03-30T20:26:45.686Z,17.77
2019-03-30T20:29:24.714Z,20.73
2019-03-30T20:31:43.194Z,20.10
2019-03-30T20:34:10.925Z,19.17
2019-03-30T20:36:38.880Z,18.47
2019-03-30T20:39:08.368Z,19.67
2019-03-30T20:41:36.436Z,19.27
2019-03-30T20:44:04.387Z,18.83
2019-03-30T20:46:32.298Z,17.23
2019-03-30T20:49:00.279Z,15.17
2019-03-30T20:51:28.510Z,17.70
2019-03-30T20:53:56.426Z,14.17
2019-03-30T20:56:24.354Z,18.67
2019-03-30T20:58:52.256Z,19.53
2019-03-30T21:01:20.206Z,20.03
2019-03-30T21:03:48.032Z,18.87
2019-03-30T21:06:15.942Z,17.60
2019-03-30T21:08:43.836Z,19.10
2019-03-30T21:11:11.708Z,19.83
2019-03-30T21:13:39.606Z,16.93
2019-03-30T21:16:07.625Z,17.83
2019-03-30T21:18:35.536Z,17.43
2019-03-30T21:21:03.463Z,17.27
2019-03-30T21:23:31.346Z,20.80
2019-03-30T21:25:59.262Z,14.73
2019-03-30T21:28:27.142Z,14.97
2019-03-30T21:30:55.084Z,20.50
2019-03-30T21:33:22.957Z,17.87
2019-03-30T21:35:50.902Z,16.00
2019-03-30T21:38:18.798Z,21.87
2019-03-30T21:40:46.610Z,17.83
2019-03-30T21:43:14.504Z,21.83
2019-03-30T21:45:42.431Z,22.10
2019-03-30T21:48:10.340Z,17.40
2019-03-30T21:50:38.278Z,17.03
2019-03-30T21:53:06.162Z,22.00
2019-03-30T21:55:34.058Z,20.40
2019-03-30T21:58:01.957Z,21.53
2019-03-30T22:00:34.554Z,28.87
2019-03-30T22:03:02.474Z,20.53
2019-03-30T22:05:30.446Z,21.20
2019-03-30T22:07:58.446Z,22.03
2019-03-30T22:10:29.346Z,18.70
2019-03-30T22:12:57.271Z,21.23
2019-03-30T22:15:26.780Z,19.63
2019-03-30T22:17:54.581Z,23.23
2019-03-30T22:20:22.471Z,23.33
2019-03-30T22:22:50.387Z,19.57
2019-03-30T22:25:18.334Z,20.10
2019-03-30T22:27:46.734Z,21.50
2019-03-30T22:30:24.711Z,20.67
2019-03-30T22:32:44.437Z,18.57
2019-03-30T22:35:12.450Z,18.37
2019-03-30T22:37:40.430Z,19.10
2019-03-30T22:40:08.645Z,23.13
2019-03-30T22:42:36.526Z,19.07
2019-03-30T22:45:05.253Z,23.07
2019-03-30T22:47:33.293Z,24.27
2019-03-30T22:50:01.280Z,22.07
2019-03-30T22:52:29.193Z,24.27
2019-03-30T22:54:57.100Z,19.20
2019-03-30T22:57:25.012Z,21.97
2019-03-30T22:59:52.932Z,19.03
2019-03-30T23:02:21.048Z,25.33
2019-03-30T23:04:49.148Z,24.00
2019-03-30T23:07:17.105Z,21.40
2019-03-30T23:09:45.055Z,20.40
2019-03-30T23:12:12.961Z,20.33
2019-03-30T23:14:40.846Z,20.37
2019-03-30T23:17:08.738Z,20.03
2019-03-30T23:19:36.756Z,19.67
2019-03-30T23:22:04.740Z,27.10
2019-03-30T23:24:32.646Z,23.53
2019-03-30T23:27:00.874Z,19.10
2019-03-30T23:29:28.788Z,21.37
2019-03-30T23:31:56.682Z,26.90
2019-03-30T23:34:24.568Z,22.97
2019-03-30T23:36:52.452Z,21.03
2019-03-30T23:39:20.370Z,22.40
2019-03-30T23:41:48.330Z,23.70
2019-03-30T23:44:16.274Z,21.93
2019-03-30T23:46:44.109Z,26.73
2019-03-30T23:49:12.098Z,24.53
2019-03-30T23:51:40.012Z,27.50
2019-03-30T23:54:12.814Z,24.53
2019-03-30T23:56:40.722Z,25.33
2019-03-30T23:59:08.617Z,24.13
